sensor_id;sensor_type;location;lat;lon;timestamp;temperature;humidity
1778;DHT22;886;50.082;8.222;2023-06-22T00:02:23;24.20;97.70
1778;DHT22;886;50.082;8.222;2023-06-22T00:04:50;24.20;97.80
1778;DHT22;886;50.082;8.222;2023-06-22T00:07:17;24.10;98.10
1778;DHT22;886;50.082;8.222;2023-06-22T00:09:45;24.10;98.20
1778;DHT22;886;50.082;8.222;2023-06-22T00:12:12;24.10;97.80
1778;DHT22;886;50.082;8.222;2023-06-22T00:14:39;24.10;97.70
1778;DHT22;886;50.082;8.222;2023-06-22T00:17:08;24.20;97.90
1778;DHT22;886;50.082;8.222;2023-06-22T00:19:36;24.10;97.90
1778;DHT22;886;50.082;8.222;2023-06-22T00:22:03;24.20;97.90
1778;DHT22;886;50.082;8.222;2023-06-22T00:24:30;24.30;97.70
1778;DHT22;886;50.082;8.222;2023-06-22T00:26:57;24.30;97.50
1778;DHT22;886;50.082;8.222;2023-06-22T00:29:24;24.30;97.50
1778;DHT22;886;50.082;8.222;2023-06-22T00:31:51;24.30;97.40
1778;DHT22;886;50.082;8.222;2023-06-22T00:34:20;24.30;97.50
1778;DHT22;886;50.082;8.222;2023-06-22T00:36:47;24.40;97.60
1778;DHT22;886;50.082;8.222;2023-06-22T00:39:14;24.30;98.10
1778;DHT22;886;50.082;8.222;2023-06-22T00:41:41;24.30;98.20
1778;DHT22;886;50.082;8.222;2023-06-22T00:44:08;24.20;98.70
1778;DHT22;886;50.082;8.222;2023-06-22T00:46:35;24.10;98.70
1778;DHT22;886;50.082;8.222;2023-06-22T00:49:02;24.10;99.00
1778;DHT22;886;50.082;8.222;2023-06-22T00:51:33;23.90;99.80
1778;DHT22;886;50.082;8.222;2023-06-22T00:54:00;23.90;99.90
1778;DHT22;886;50.082;8.222;2023-06-22T00:56:27;23.90;99.90
1778;DHT22;886;50.082;8.222;2023-06-22T00:58:57;23.80;99.90
1778;DHT22;886;50.082;8.222;2023-06-22T01:01:26;23.70;99.90
1778;DHT22;886;50.082;8.222;2023-06-22T01:03:53;23.70;99.90
1778;DHT22;886;50.082;8.222;2023-06-22T01:06:29;23.80;99.90
1778;DHT22;886;50.082;8.222;2023-06-22T01:09:08;23.90;99.90
1778;DHT22;886;50.082;8.222;2023-06-22T01:11:45;23.90;99.90
1778;DHT22;886;50.082;8.222;2023-06-22T01:14:20;23.80;99.90
1778;DHT22;886;50.082;8.222;2023-06-22T01:16:51;23.60;99.90
1778;DHT22;886;50.082;8.222;2023-06-22T01:19:35;23.50;99.90
1778;DHT22;886;50.082;8.222;2023-06-22T01:22:10;23.40;99.90
1778;DHT22;886;50.082;8.222;2023-06-22T01:24:51;23.40;99.90
1778;DHT22;886;50.082;8.222;2023-06-22T01:27:32;23.30;99.90
1778;DHT22;886;50.082;8.222;2023-06-22T01:30:03;23.30;99.90
1778;DHT22;886;50.082;8.222;2023-06-22T01:32:34;23.20;99.90
1778;DHT22;886;50.082;8.222;2023-06-22T01:35:07;23.20;99.90
1778;DHT22;886;50.082;8.222;2023-06-22T01:37:37;23.20;99.90
1778;DHT22;886;50.082;8.222;2023-06-22T01:40:06;23.00;99.90
1778;DHT22;886;50.082;8.222;2023-06-22T01:42:36;22.80;99.90
1778;DHT22;886;50.082;8.222;2023-06-22T01:45:07;22.80;99.90
1778;DHT22;886;50.082;8.222;2023-06-22T01:47:35;23.00;99.90
1778;DHT22;886;50.082;8.222;2023-06-22T01:50:04;23.00;99.90
1778;DHT22;886;50.082;8.222;2023-06-22T01:52:32;22.90;99.90
1778;DHT22;886;50.082;8.222;2023-06-22T01:55:00;22.80;99.90
1778;DHT22;886;50.082;8.222;2023-06-22T01:57:28;22.70;99.90
1778;DHT22;886;50.082;8.222;2023-06-22T02:00:00;22.70;99.90
1778;DHT22;886;50.082;8.222;2023-06-22T02:02:33;22.70;99.90
1778;DHT22;886;50.082;8.222;2023-06-22T02:05:06;22.70;99.90
1778;DHT22;886;50.082;8.222;2023-06-22T02:07:39;22.60;99.90
1778;DHT22;886;50.082;8.222;2023-06-22T02:10:09;22.70;99.90
1778;DHT22;886;50.082;8.222;2023-06-22T02:12:39;22.70;99.90
1778;DHT22;886;50.082;8.222;2023-06-22T02:15:08;22.80;99.90
1778;DHT22;886;50.082;8.222;2023-06-22T02:17:37;22.70;99.90
1778;DHT22;886;50.082;8.222;2023-06-22T02:20:05;22.70;99.90
1778;DHT22;886;50.082;8.222;2023-06-22T02:22:35;22.60;99.90
1778;DHT22;886;50.082;8.222;2023-06-22T02:25:02;22.70;99.90
1778;DHT22;886;50.082;8.222;2023-06-22T02:27:30;22.70;99.90
1778;DHT22;886;50.082;8.222;2023-06-22T02:29:57;22.60;99.90
1778;DHT22;886;50.082;8.222;2023-06-22T02:32:24;22.60;99.90
1778;DHT22;886;50.082;8.222;2023-06-22T02:34:52;22.50;99.90
1778;DHT22;886;50.082;8.222;2023-06-22T02:37:19;22.60;99.90
1778;DHT22;886;50.082;8.222;2023-06-22T02:39:46;22.50;99.90
1778;DHT22;886;50.082;8.222;2023-06-22T02:42:14;22.60;99.90
1778;DHT22;886;50.082;8.222;2023-06-22T02:44:41;22.70;99.90
1778;DHT22;886;50.082;8.222;2023-06-22T02:47:08;22.70;99.90
1778;DHT22;886;50.082;8.222;2023-06-22T02:49:36;22.60;99.90
1778;DHT22;886;50.082;8.222;2023-06-22T02:52:04;22.70;99.90
1778;DHT22;886;50.082;8.222;2023-06-22T02:54:31;22.70;99.90
1778;DHT22;886;50.082;8.222;2023-06-22T02:56:59;22.60;99.90
1778;DHT22;886;50.082;8.222;2023-06-22T02:59:30;22.50;99.90
1778;DHT22;886;50.082;8.222;2023-06-22T03:02:00;22.60;99.90
1778;DHT22;886;50.082;8.222;2023-06-22T03:04:27;22.50;99.90
1778;DHT22;886;50.082;8.222;2023-06-22T03:06:54;22.60;99.90
1778;DHT22;886;50.082;8.222;2023-06-22T03:09:22;22.70;99.90
1778;DHT22;886;50.082;8.222;2023-06-22T03:11:49;22.70;99.90
1778;DHT22;886;50.082;8.222;2023-06-22T03:14:17;22.70;99.90
1778;DHT22;886;50.082;8.222;2023-06-22T03:16:44;22.70;99.90
1778;DHT22;886;50.082;8.222;2023-06-22T03:19:11;22.70;99.90
1778;DHT22;886;50.082;8.222;2023-06-22T03:21:38;22.60;99.90
1778;DHT22;886;50.082;8.222;2023-06-22T03:24:06;22.60;99.90
1778;DHT22;886;50.082;8.222;2023-06-22T03:26:35;22.50;99.90
1778;DHT22;886;50.082;8.222;2023-06-22T03:29:02;22.60;99.90
1778;DHT22;886;50.082;8.222;2023-06-22T03:31:29;22.50;99.90
1778;DHT22;886;50.082;8.222;2023-06-22T03:33:57;22.50;99.90
1778;DHT22;886;50.082;8.222;2023-06-22T03:36:24;22.60;99.90
1778;DHT22;886;50.082;8.222;2023-06-22T03:38:51;22.60;99.90
1778;DHT22;886;50.082;8.222;2023-06-22T03:41:18;22.60;99.90
1778;DHT22;886;50.082;8.222;2023-06-22T03:43:46;22.50;99.90
1778;DHT22;886;50.082;8.222;2023-06-22T03:46:14;22.60;99.90
1778;DHT22;886;50.082;8.222;2023-06-22T03:48:41;22.50;99.90
1778;DHT22;886;50.082;8.222;2023-06-22T03:51:08;22.50;99.90
1778;DHT22;886;50.082;8.222;2023-06-22T03:53:35;22.50;99.90
1778;DHT22;886;50.082;8.222;2023-06-22T03:56:03;22.50;99.90
1778;DHT22;886;50.082;8.222;2023-06-22T03:58:30;22.60;99.90
1778;DHT22;886;50.082;8.222;2023-06-22T04:01:01;22.60;99.90
1778;DHT22;886;50.082;8.222;2023-06-22T04:03:28;22.60;99.90
1778;DHT22;886;50.082;8.222;2023-06-22T04:05:55;22.50;99.90
1778;DHT22;886;50.082;8.222;2023-06-22T04:08:22;22.50;99.90
1778;DHT22;886;50.082;8.222;2023-06-22T04:10:49;22.50;99.90
1778;DHT22;886;50.082;8.222;2023-06-22T04:13:16;22.60;99.90
1778;DHT22;886;50.082;8.222;2023-06-22T04:15:43;22.50;99.90
1778;DHT22;886;50.082;8.222;2023-06-22T04:18:12;22.60;99.90
1778;DHT22;886;50.082;8.222;2023-06-22T04:20:40;22.60;99.90
1778;DHT22;886;50.082;8.222;2023-06-22T04:23:07;22.60;99.90
1778;DHT22;886;50.082;8.222;2023-06-22T04:25:34;22.60;99.90
1778;DHT22;886;50.082;8.222;2023-06-22T04:28:01;22.60;99.90
1778;DHT22;886;50.082;8.222;2023-06-22T04:30:30;22.60;99.90
1778;DHT22;886;50.082;8.222;2023-06-22T04:32:58;22.70;99.90
1778;DHT22;886;50.082;8.222;2023-06-22T04:35:28;22.60;99.90
1778;DHT22;886;50.082;8.222;2023-06-22T04:37:57;22.60;99.90
1778;DHT22;886;50.082;8.222;2023-06-22T04:40:24;22.60;99.90
1778;DHT22;886;50.082;8.222;2023-06-22T04:42:53;22.70;99.90
1778;DHT22;886;50.082;8.222;2023-06-22T04:45:21;22.60;99.90
1778;DHT22;886;50.082;8.222;2023-06-22T04:47:48;22.60;99.90
1778;DHT22;886;50.082;8.222;2023-06-22T04:50:16;22.60;99.90
1778;DHT22;886;50.082;8.222;2023-06-22T04:52:46;22.60;99.90
1778;DHT22;886;50.082;8.222;2023-06-22T04:55:13;22.70;99.90
1778;DHT22;886;50.082;8.222;2023-06-22T04:57:45;22.70;99.90
1778;DHT22;886;50.082;8.222;2023-06-22T05:00:16;22.80;99.90
1778;DHT22;886;50.082;8.222;2023-06-22T05:02:46;22.90;99.90
1778;DHT22;886;50.082;8.222;2023-06-22T05:05:13;22.90;99.90
1778;DHT22;886;50.082;8.222;2023-06-22T05:07:42;22.90;99.90
1778;DHT22;886;50.082;8.222;2023-06-22T05:10:12;22.90;99.90
1778;DHT22;886;50.082;8.222;2023-06-22T05:12:40;22.90;99.90
1778;DHT22;886;50.082;8.222;2023-06-22T05:15:08;22.80;99.90
1778;DHT22;886;50.082;8.222;2023-06-22T05:17:36;22.80;99.90
1778;DHT22;886;50.082;8.222;2023-06-22T05:20:09;22.90;99.90
1778;DHT22;886;50.082;8.222;2023-06-22T05:22:36;22.90;99.90
1778;DHT22;886;50.082;8.222;2023-06-22T05:25:05;23.00;99.90
1778;DHT22;886;50.082;8.222;2023-06-22T05:27:36;23.00;99.90
1778;DHT22;886;50.082;8.222;2023-06-22T05:30:07;23.10;99.90
1778;DHT22;886;50.082;8.222;2023-06-22T05:32:35;23.10;99.90
1778;DHT22;886;50.082;8.222;2023-06-22T05:35:03;23.10;99.90
1778;DHT22;886;50.082;8.222;2023-06-22T05:37:30;23.10;99.90
1778;DHT22;886;50.082;8.222;2023-06-22T05:39:57;23.00;99.90
1778;DHT22;886;50.082;8.222;2023-06-22T05:42:24;23.10;99.90
1778;DHT22;886;50.082;8.222;2023-06-22T05:44:54;23.10;99.90
1778;DHT22;886;50.082;8.222;2023-06-22T05:47:21;23.20;99.90
1778;DHT22;886;50.082;8.222;2023-06-22T05:49:49;23.20;99.90
1778;DHT22;886;50.082;8.222;2023-06-22T05:52:16;23.30;99.90
1778;DHT22;886;50.082;8.222;2023-06-22T05:54:44;23.40;99.90
1778;DHT22;886;50.082;8.222;2023-06-22T05:57:11;23.50;99.90
1778;DHT22;886;50.082;8.222;2023-06-22T05:59:38;23.60;99.90
1778;DHT22;886;50.082;8.222;2023-06-22T06:02:07;23.60;99.90
1778;DHT22;886;50.082;8.222;2023-06-22T06:04:34;23.70;99.90
1778;DHT22;886;50.082;8.222;2023-06-22T06:07:05;23.70;99.90
1778;DHT22;886;50.082;8.222;2023-06-22T06:09:32;23.80;99.90
1778;DHT22;886;50.082;8.222;2023-06-22T06:11:59;24.10;99.90
1778;DHT22;886;50.082;8.222;2023-06-22T06:14:26;24.40;99.90
1778;DHT22;886;50.082;8.222;2023-06-22T06:16:53;24.70;99.90
1778;DHT22;886;50.082;8.222;2023-06-22T06:19:22;25.00;99.90
1778;DHT22;886;50.082;8.222;2023-06-22T06:21:48;25.30;99.90
1778;DHT22;886;50.082;8.222;2023-06-22T06:24:16;25.60;99.90
1778;DHT22;886;50.082;8.222;2023-06-22T06:26:43;25.80;99.90
1778;DHT22;886;50.082;8.222;2023-06-22T06:29:11;25.90;99.90
1778;DHT22;886;50.082;8.222;2023-06-22T06:31:38;25.90;99.90
1778;DHT22;886;50.082;8.222;2023-06-22T06:34:05;25.90;99.90
1778;DHT22;886;50.082;8.222;2023-06-22T06:36:34;25.90;99.90
1778;DHT22;886;50.082;8.222;2023-06-22T06:39:01;25.90;99.90
1778;DHT22;886;50.082;8.222;2023-06-22T06:41:31;25.90;99.90
1778;DHT22;886;50.082;8.222;2023-06-22T06:43:58;25.90;99.90
1778;DHT22;886;50.082;8.222;2023-06-22T06:46:25;25.90;99.90
1778;DHT22;886;50.082;8.222;2023-06-22T06:48:52;25.90;99.90
1778;DHT22;886;50.082;8.222;2023-06-22T06:51:19;25.90;99.90
1778;DHT22;886;50.082;8.222;2023-06-22T06:53:48;25.90;99.90
1778;DHT22;886;50.082;8.222;2023-06-22T06:56:15;25.90;99.90
1778;DHT22;886;50.082;8.222;2023-06-22T06:58:42;26.10;99.90
1778;DHT22;886;50.082;8.222;2023-06-22T07:01:11;26.20;99.90
1778;DHT22;886;50.082;8.222;2023-06-22T07:03:39;26.30;99.40
1778;DHT22;886;50.082;8.222;2023-06-22T07:06:06;26.60;98.50
1778;DHT22;886;50.082;8.222;2023-06-22T07:08:33;27.00;98.00
1778;DHT22;886;50.082;8.222;2023-06-22T07:11:03;27.30;97.60
1778;DHT22;886;50.082;8.222;2023-06-22T07:13:30;27.60;96.80
1778;DHT22;886;50.082;8.222;2023-06-22T07:15:57;28.00;96.30
1778;DHT22;886;50.082;8.222;2023-06-22T07:18:24;28.40;95.60
1778;DHT22;886;50.082;8.222;2023-06-22T07:20:53;28.70;95.10
1778;DHT22;886;50.082;8.222;2023-06-22T07:23:20;28.80;94.70
1778;DHT22;886;50.082;8.222;2023-06-22T07:25:47;28.90;94.40
1778;DHT22;886;50.082;8.222;2023-06-22T07:28:33;28.90;93.90
1778;DHT22;886;50.082;8.222;2023-06-22T07:31:04;28.90;94.10
1778;DHT22;886;50.082;8.222;2023-06-22T07:33:31;28.90;94.00
1778;DHT22;886;50.082;8.222;2023-06-22T07:35:58;28.70;94.10
1778;DHT22;886;50.082;8.222;2023-06-22T07:38:26;28.60;94.00
1778;DHT22;886;50.082;8.222;2023-06-22T07:40:53;28.40;94.10
1778;DHT22;886;50.082;8.222;2023-06-22T07:43:20;28.10;94.60
1778;DHT22;886;50.082;8.222;2023-06-22T07:45:50;28.00;94.60
1778;DHT22;886;50.082;8.222;2023-06-22T07:48:20;28.00;94.50
1778;DHT22;886;50.082;8.222;2023-06-22T07:50:48;27.80;94.40
1778;DHT22;886;50.082;8.222;2023-06-22T07:53:15;27.70;94.60
1778;DHT22;886;50.082;8.222;2023-06-22T07:55:42;27.60;94.90
1778;DHT22;886;50.082;8.222;2023-06-22T07:58:09;27.50;95.10
1778;DHT22;886;50.082;8.222;2023-06-22T08:00:36;27.50;95.40
1778;DHT22;886;50.082;8.222;2023-06-22T08:03:05;27.50;95.20
1778;DHT22;886;50.082;8.222;2023-06-22T08:05:33;27.40;95.00
1778;DHT22;886;50.082;8.222;2023-06-22T08:08:00;27.40;95.20
1778;DHT22;886;50.082;8.222;2023-06-22T08:10:27;27.40;95.20
1778;DHT22;886;50.082;8.222;2023-06-22T08:12:54;27.50;95.20
1778;DHT22;886;50.082;8.222;2023-06-22T08:15:21;27.50;95.20
1778;DHT22;886;50.082;8.222;2023-06-22T08:17:48;27.60;95.20
1778;DHT22;886;50.082;8.222;2023-06-22T08:20:17;27.60;94.90
1778;DHT22;886;50.082;8.222;2023-06-22T08:22:44;27.70;94.80
1778;DHT22;886;50.082;8.222;2023-06-22T08:25:11;27.70;94.80
1778;DHT22;886;50.082;8.222;2023-06-22T08:27:40;27.90;94.90
1778;DHT22;886;50.082;8.222;2023-06-22T08:30:09;27.90;94.80
1778;DHT22;886;50.082;8.222;2023-06-22T08:32:37;28.00;94.70
1778;DHT22;886;50.082;8.222;2023-06-22T08:35:05;28.00;94.40
1778;DHT22;886;50.082;8.222;2023-06-22T08:37:37;28.20;94.20
1778;DHT22;886;50.082;8.222;2023-06-22T08:40:08;28.40;94.00
1778;DHT22;886;50.082;8.222;2023-06-22T08:42:37;28.50;94.10
1778;DHT22;886;50.082;8.222;2023-06-22T08:45:05;28.50;94.30
1778;DHT22;886;50.082;8.222;2023-06-22T08:47:34;28.50;94.20
1778;DHT22;886;50.082;8.222;2023-06-22T08:50:01;28.50;93.80
1778;DHT22;886;50.082;8.222;2023-06-22T08:52:31;28.40;94.00
1778;DHT22;886;50.082;8.222;2023-06-22T08:54:59;28.30;93.80
1778;DHT22;886;50.082;8.222;2023-06-22T08:57:27;28.30;93.90
1778;DHT22;886;50.082;8.222;2023-06-22T08:59:54;28.20;94.00
1778;DHT22;886;50.082;8.222;2023-06-22T09:02:25;28.20;94.20
1778;DHT22;886;50.082;8.222;2023-06-22T09:04:52;28.20;94.20
1778;DHT22;886;50.082;8.222;2023-06-22T09:07:22;28.20;94.40
1778;DHT22;886;50.082;8.222;2023-06-22T09:09:50;28.20;94.50
1778;DHT22;886;50.082;8.222;2023-06-22T09:12:20;28.20;94.60
1778;DHT22;886;50.082;8.222;2023-06-22T09:14:49;28.40;94.10
1778;DHT22;886;50.082;8.222;2023-06-22T09:17:16;28.60;94.10
1778;DHT22;886;50.082;8.222;2023-06-22T09:19:44;28.70;94.20
1778;DHT22;886;50.082;8.222;2023-06-22T09:22:11;28.90;93.70
1778;DHT22;886;50.082;8.222;2023-06-22T09:24:39;29.00;93.80
1778;DHT22;886;50.082;8.222;2023-06-22T09:27:06;29.10;93.70
1778;DHT22;886;50.082;8.222;2023-06-22T09:29:35;29.10;93.40
1778;DHT22;886;50.082;8.222;2023-06-22T09:32:03;29.20;93.50
1778;DHT22;886;50.082;8.222;2023-06-22T09:34:30;29.30;93.30
1778;DHT22;886;50.082;8.222;2023-06-22T09:36:58;29.30;92.90
1778;DHT22;886;50.082;8.222;2023-06-22T09:39:27;29.40;93.10
1778;DHT22;886;50.082;8.222;2023-06-22T09:41:54;29.40;93.10
1778;DHT22;886;50.082;8.222;2023-06-22T09:44:40;29.30;93.50
1778;DHT22;886;50.082;8.222;2023-06-22T09:47:07;29.10;93.60
1778;DHT22;886;50.082;8.222;2023-06-22T09:49:35;29.00;93.70
1778;DHT22;886;50.082;8.222;2023-06-22T09:52:05;28.90;93.90
1778;DHT22;886;50.082;8.222;2023-06-22T09:54:33;28.80;93.80
1778;DHT22;886;50.082;8.222;2023-06-22T09:57:00;28.80;94.00
1778;DHT22;886;50.082;8.222;2023-06-22T09:59:27;28.90;94.10
1778;DHT22;886;50.082;8.222;2023-06-22T10:01:56;29.00;93.80
1778;DHT22;886;50.082;8.222;2023-06-22T10:04:23;29.00;93.80
1778;DHT22;886;50.082;8.222;2023-06-22T10:06:51;29.00;93.70
1778;DHT22;886;50.082;8.222;2023-06-22T10:09:18;28.90;94.00
1778;DHT22;886;50.082;8.222;2023-06-22T10:11:45;28.90;93.80
1778;DHT22;886;50.082;8.222;2023-06-22T10:14:12;28.90;93.90
1778;DHT22;886;50.082;8.222;2023-06-22T10:16:39;28.90;94.10
1778;DHT22;886;50.082;8.222;2023-06-22T10:19:09;28.90;94.30
1778;DHT22;886;50.082;8.222;2023-06-22T10:21:36;29.00;94.40
1778;DHT22;886;50.082;8.222;2023-06-22T10:24:04;28.90;94.00
1778;DHT22;886;50.082;8.222;2023-06-22T10:26:35;28.90;94.10
1778;DHT22;886;50.082;8.222;2023-06-22T10:29:03;28.90;94.10
1778;DHT22;886;50.082;8.222;2023-06-22T10:31:42;28.90;94.20
1778;DHT22;886;50.082;8.222;2023-06-22T10:34:13;28.90;93.70
1778;DHT22;886;50.082;8.222;2023-06-22T10:36:40;28.90;93.60
1778;DHT22;886;50.082;8.222;2023-06-22T10:39:08;29.10;93.80
1778;DHT22;886;50.082;8.222;2023-06-22T10:41:35;29.10;94.00
1778;DHT22;886;50.082;8.222;2023-06-22T10:44:02;29.10;93.50
1778;DHT22;886;50.082;8.222;2023-06-22T10:46:30;29.20;93.60
1778;DHT22;886;50.082;8.222;2023-06-22T10:48:57;29.30;93.70
1778;DHT22;886;50.082;8.222;2023-06-22T10:51:26;29.30;93.60
1778;DHT22;886;50.082;8.222;2023-06-22T10:53:55;29.40;93.60
1778;DHT22;886;50.082;8.222;2023-06-22T10:56:23;29.40;93.60
1778;DHT22;886;50.082;8.222;2023-06-22T10:58:50;29.50;93.50
1778;DHT22;886;50.082;8.222;2023-06-22T11:01:17;29.50;93.00
1778;DHT22;886;50.082;8.222;2023-06-22T11:04:01;29.40;93.00
1778;DHT22;886;50.082;8.222;2023-06-22T11:06:30;29.40;93.10
1778;DHT22;886;50.082;8.222;2023-06-22T11:08:57;29.40;92.80
1778;DHT22;886;50.082;8.222;2023-06-22T11:11:38;29.40;92.90
1778;DHT22;886;50.082;8.222;2023-06-22T11:14:05;29.50;93.10
1778;DHT22;886;50.082;8.222;2023-06-22T11:16:32;29.50;92.90
1778;DHT22;886;50.082;8.222;2023-06-22T11:19:01;29.60;92.80
1778;DHT22;886;50.082;8.222;2023-06-22T11:21:31;29.70;92.30
1778;DHT22;886;50.082;8.222;2023-06-22T11:23:59;29.70;91.90
1778;DHT22;886;50.082;8.222;2023-06-22T11:26:27;29.70;92.00
1778;DHT22;886;50.082;8.222;2023-06-22T11:28:54;29.70;91.40
1778;DHT22;886;50.082;8.222;2023-06-22T11:31:21;29.80;91.30
1778;DHT22;886;50.082;8.222;2023-06-22T11:33:52;29.80;91.20
1778;DHT22;886;50.082;8.222;2023-06-22T11:36:20;29.80;91.10
1778;DHT22;886;50.082;8.222;2023-06-22T11:38:48;29.90;91.10
1778;DHT22;886;50.082;8.222;2023-06-22T11:41:15;29.80;91.00
1778;DHT22;886;50.082;8.222;2023-06-22T11:43:42;29.80;91.30
1778;DHT22;886;50.082;8.222;2023-06-22T11:46:10;29.80;91.30
1778;DHT22;886;50.082;8.222;2023-06-22T11:48:37;29.80;91.00
1778;DHT22;886;50.082;8.222;2023-06-22T11:51:04;29.80;90.90
1778;DHT22;886;50.082;8.222;2023-06-22T11:53:33;29.90;90.80
1778;DHT22;886;50.082;8.222;2023-06-22T11:56:02;29.90;90.80
1778;DHT22;886;50.082;8.222;2023-06-22T11:58:29;30.00;90.60
1778;DHT22;886;50.082;8.222;2023-06-22T12:00:57;30.10;90.50
1778;DHT22;886;50.082;8.222;2023-06-22T12:03:24;30.10;90.50
1778;DHT22;886;50.082;8.222;2023-06-22T12:05:51;30.10;90.40
1778;DHT22;886;50.082;8.222;2023-06-22T12:08:19;30.10;90.60
1778;DHT22;886;50.082;8.222;2023-06-22T12:10:46;30.10;90.60
1778;DHT22;886;50.082;8.222;2023-06-22T12:13:15;30.10;90.70
1778;DHT22;886;50.082;8.222;2023-06-22T12:15:42;30.10;90.70
1778;DHT22;886;50.082;8.222;2023-06-22T12:18:09;30.20;90.50
1778;DHT22;886;50.082;8.222;2023-06-22T12:20:36;30.20;90.50
1778;DHT22;886;50.082;8.222;2023-06-22T12:23:04;30.20;90.40
1778;DHT22;886;50.082;8.222;2023-06-22T12:25:31;30.20;90.50
1778;DHT22;886;50.082;8.222;2023-06-22T12:27:58;30.30;90.50
1778;DHT22;886;50.082;8.222;2023-06-22T12:30:26;30.30;90.70
1778;DHT22;886;50.082;8.222;2023-06-22T12:32:54;30.30;90.70
1778;DHT22;886;50.082;8.222;2023-06-22T12:35:22;30.30;90.70
1778;DHT22;886;50.082;8.222;2023-06-22T12:37:50;30.40;90.70
1778;DHT22;886;50.082;8.222;2023-06-22T12:40:17;30.40;90.50
1778;DHT22;886;50.082;8.222;2023-06-22T12:42:45;30.40;90.60
1778;DHT22;886;50.082;8.222;2023-06-22T12:45:12;30.40;90.50
1778;DHT22;886;50.082;8.222;2023-06-22T12:47:40;30.50;90.40
1778;DHT22;886;50.082;8.222;2023-06-22T12:50:08;30.50;90.50
1778;DHT22;886;50.082;8.222;2023-06-22T12:52:37;30.50;90.40
1778;DHT22;886;50.082;8.222;2023-06-22T12:55:08;30.50;90.30
1778;DHT22;886;50.082;8.222;2023-06-22T12:57:35;30.50;90.30
1778;DHT22;886;50.082;8.222;2023-06-22T13:00:03;30.40;90.30
1778;DHT22;886;50.082;8.222;2023-06-22T13:02:35;30.50;90.30
1778;DHT22;886;50.082;8.222;2023-06-22T13:05:04;30.40;90.20
1778;DHT22;886;50.082;8.222;2023-06-22T13:07:32;30.50;90.30
1778;DHT22;886;50.082;8.222;2023-06-22T13:09:59;30.50;90.60
1778;DHT22;886;50.082;8.222;2023-06-22T13:12:26;30.70;90.20
1778;DHT22;886;50.082;8.222;2023-06-22T13:14:53;30.70;89.90
1778;DHT22;886;50.082;8.222;2023-06-22T13:17:20;30.70;89.60
1778;DHT22;886;50.082;8.222;2023-06-22T13:19:48;30.70;89.30
1778;DHT22;886;50.082;8.222;2023-06-22T13:22:34;30.70;89.50
1778;DHT22;886;50.082;8.222;2023-06-22T13:25:08;30.80;89.90
1778;DHT22;886;50.082;8.222;2023-06-22T13:27:39;30.80;90.10
1778;DHT22;886;50.082;8.222;2023-06-22T13:30:07;30.90;90.10
1778;DHT22;886;50.082;8.222;2023-06-22T13:32:40;31.00;90.10
1778;DHT22;886;50.082;8.222;2023-06-22T13:35:09;31.00;90.00
1778;DHT22;886;50.082;8.222;2023-06-22T13:37:37;31.00;90.00
1778;DHT22;886;50.082;8.222;2023-06-22T13:40:06;30.90;90.30
1778;DHT22;886;50.082;8.222;2023-06-22T13:42:34;30.90;90.40
1778;DHT22;886;50.082;8.222;2023-06-22T13:45:01;30.90;90.00
1778;DHT22;886;50.082;8.222;2023-06-22T13:47:29;30.80;90.00
1778;DHT22;886;50.082;8.222;2023-06-22T13:49:57;30.80;90.30
1778;DHT22;886;50.082;8.222;2023-06-22T13:52:24;30.80;90.20
1778;DHT22;886;50.082;8.222;2023-06-22T13:54:53;30.80;90.30
1778;DHT22;886;50.082;8.222;2023-06-22T13:57:21;30.70;90.30
1778;DHT22;886;50.082;8.222;2023-06-22T13:59:48;30.70;90.30
1778;DHT22;886;50.082;8.222;2023-06-22T14:02:15;30.60;90.40
1778;DHT22;886;50.082;8.222;2023-06-22T14:04:42;30.70;90.50
1778;DHT22;886;50.082;8.222;2023-06-22T14:07:10;30.70;89.40
1778;DHT22;886;50.082;8.222;2023-06-22T14:09:40;30.70;88.60
1778;DHT22;886;50.082;8.222;2023-06-22T14:12:09;30.70;88.40
1778;DHT22;886;50.082;8.222;2023-06-22T14:14:37;30.70;88.50
1778;DHT22;886;50.082;8.222;2023-06-22T14:17:04;30.80;88.50
1778;DHT22;886;50.082;8.222;2023-06-22T14:19:32;30.80;88.10
1778;DHT22;886;50.082;8.222;2023-06-22T14:21:59;30.70;88.00
1778;DHT22;886;50.082;8.222;2023-06-22T14:24:26;30.70;87.50
1778;DHT22;886;50.082;8.222;2023-06-22T14:26:56;30.70;86.80
1778;DHT22;886;50.082;8.222;2023-06-22T14:29:25;30.60;85.90
1778;DHT22;886;50.082;8.222;2023-06-22T14:31:52;30.60;85.90
1778;DHT22;886;50.082;8.222;2023-06-22T14:34:20;30.50;85.60
1778;DHT22;886;50.082;8.222;2023-06-22T14:36:47;30.50;85.90
1778;DHT22;886;50.082;8.222;2023-06-22T14:39:14;30.50;86.00
1778;DHT22;886;50.082;8.222;2023-06-22T14:41:41;30.50;86.10
1778;DHT22;886;50.082;8.222;2023-06-22T14:44:08;30.40;86.20
1778;DHT22;886;50.082;8.222;2023-06-22T14:46:37;30.40;86.50
1778;DHT22;886;50.082;8.222;2023-06-22T14:49:04;30.40;86.70
1778;DHT22;886;50.082;8.222;2023-06-22T14:51:31;30.40;86.90
1778;DHT22;886;50.082;8.222;2023-06-22T14:53:58;30.30;87.00
1778;DHT22;886;50.082;8.222;2023-06-22T14:56:25;30.30;87.50
1778;DHT22;886;50.082;8.222;2023-06-22T14:58:52;30.30;87.80
1778;DHT22;886;50.082;8.222;2023-06-22T15:01:19;30.30;88.10
1778;DHT22;886;50.082;8.222;2023-06-22T15:03:48;30.30;88.10
1778;DHT22;886;50.082;8.222;2023-06-22T15:06:15;30.30;88.00
1778;DHT22;886;50.082;8.222;2023-06-22T15:08:43;30.20;88.10
1778;DHT22;886;50.082;8.222;2023-06-22T15:11:10;30.20;88.40
1778;DHT22;886;50.082;8.222;2023-06-22T15:13:39;30.20;88.50
1778;DHT22;886;50.082;8.222;2023-06-22T15:16:07;30.20;88.70
1778;DHT22;886;50.082;8.222;2023-06-22T15:18:36;30.20;88.70
1778;DHT22;886;50.082;8.222;2023-06-22T15:21:04;30.10;88.00
1778;DHT22;886;50.082;8.222;2023-06-22T15:23:32;30.10;87.20
1778;DHT22;886;50.082;8.222;2023-06-22T15:26:02;30.10;86.30
1778;DHT22;886;50.082;8.222;2023-06-22T15:28:32;30.10;85.40
1778;DHT22;886;50.082;8.222;2023-06-22T15:31:01;30.00;87.50
1778;DHT22;886;50.082;8.222;2023-06-22T15:33:28;29.90;89.80
1778;DHT22;886;50.082;8.222;2023-06-22T15:35:58;29.70;90.70
1778;DHT22;886;50.082;8.222;2023-06-22T15:38:33;29.60;90.90
1778;DHT22;886;50.082;8.222;2023-06-22T15:41:00;29.60;91.10
1778;DHT22;886;50.082;8.222;2023-06-22T15:43:27;29.40;91.20
1778;DHT22;886;50.082;8.222;2023-06-22T15:45:55;29.30;91.50
1778;DHT22;886;50.082;8.222;2023-06-22T15:48:22;29.30;91.80
1778;DHT22;886;50.082;8.222;2023-06-22T15:50:49;29.10;91.30
1778;DHT22;886;50.082;8.222;2023-06-22T15:53:16;28.80;93.40
1778;DHT22;886;50.082;8.222;2023-06-22T15:55:44;28.50;94.40
1778;DHT22;886;50.082;8.222;2023-06-22T15:58:13;28.20;95.70
1778;DHT22;886;50.082;8.222;2023-06-22T16:00:43;27.80;96.70
1778;DHT22;886;50.082;8.222;2023-06-22T16:03:12;27.40;95.00
1778;DHT22;886;50.082;8.222;2023-06-22T16:05:39;27.10;96.00
1778;DHT22;886;50.082;8.222;2023-06-22T16:08:09;26.70;97.10
1778;DHT22;886;50.082;8.222;2023-06-22T16:10:38;26.60;98.00
1778;DHT22;886;50.082;8.222;2023-06-22T16:13:07;26.60;98.60
1778;DHT22;886;50.082;8.222;2023-06-22T16:15:34;26.60;99.50
1778;DHT22;886;50.082;8.222;2023-06-22T16:18:01;26.40;99.90
1778;DHT22;886;50.082;8.222;2023-06-22T16:20:28;26.40;99.90
1778;DHT22;886;50.082;8.222;2023-06-22T16:22:56;26.50;99.90
1778;DHT22;886;50.082;8.222;2023-06-22T16:25:23;26.40;99.90